Terminal Aerodrome Forecast
Issued by NWS

Home | Current Version | Previous Version | Text Only | Print | Product List | Glossary Off
Versions: 1 2 3 4 5 6 7 8 9 10 11 12 13 14 15 16 17

000
FTUS43 KICT 151722
TAFHUT
TAF
KHUT 151722Z 1518/1618 16012KT P6SM SCT050
     FM160000 15011KT P6SM SCT110
     FM160200 15008KT P6SM BKN150
     FM161100 17005KT P6SM BKN050=

USA.gov is the U.S. government's official web portal to all federal, state and local government web resources and services.